Time;durP1;ratioP1;P1;durP2;ratioP2;P2;SDS_P1;SDS_P2;PMS_P1;PMS_P2;Temp;Humidity;BMP_temperature;BMP_pressure;BME280_temperature;BME280_humidity;BME280_pressure;Samples;Min_cycle;Max_cycle;Signal;HPM_P1;HPM_P2
2022/09/19 00:02:00;;;;;;;1.73;0.80;;;8.40;99.90;;;9.06;100.00;98233.31;5051498;28;20501;-86
2022/09/19 00:04:33;;;;;;;1.83;1.00;;;8.30;99.90;;;9.07;100.00;98239.34;5051763;28;20461;-86
2022/09/19 00:07:02;;;;;;;2.63;0.83;;;8.30;99.90;;;9.08;100.00;98240.97;5050096;28;21134;-87
2022/09/19 00:09:34;;;;;;;3.23;0.90;;;8.30;99.90;;;9.01;100.00;98240.03;5052328;28;20462;-86
2022/09/19 00:12:04;;;;;;;2.03;0.90;;;8.20;99.90;;;8.99;100.00;98247.19;5050722;28;20998;-86
2022/09/19 00:14:35;;;;;;;1.10;0.90;;;8.10;99.90;;;9.02;100.00;98252.88;5049981;28;20481;-86
2022/09/19 00:17:08;;;;;;;1.73;0.90;;;8.20;99.90;;;8.99;100.00;98247.19;5049880;28;20469;-86
2022/09/19 00:19:38;;;;;;;1.00;0.90;;;8.10;99.90;;;8.96;100.00;98247.53;5051415;28;20981;-86
2022/09/19 00:22:09;;;;;;;5.90;1.20;;;8.10;99.90;;;8.84;100.00;98244.53;5051144;28;20865;-86
2022/09/19 00:24:48;;;;;;;1.83;0.90;;;8.00;99.90;;;8.82;100.00;98243.88;5052460;28;20875;-85
2022/09/19 00:27:21;;;;;;;1.10;0.90;;;8.10;99.90;;;8.85;100.00;98237.53;5049893;28;20579;-85
2022/09/19 00:29:52;;;;;;;0.80;0.80;;;8.00;99.90;;;8.84;100.00;98239.31;5049203;28;20473;-88
2022/09/19 00:32:23;;;;;;;3.60;1.00;;;8.00;99.90;;;8.85;100.00;98246.13;5049631;28;20488;-86
2022/09/19 00:34:54;;;;;;;0.90;0.80;;;8.00;99.90;;;8.85;100.00;98246.13;5049728;28;20535;-86
2022/09/19 00:37:23;;;;;;;2.77;0.83;;;8.00;99.90;;;8.85;100.00;98240.13;5048276;28;20535;-86
2022/09/19 00:39:54;;;;;;;3.73;0.80;;;7.90;99.90;;;8.83;100.00;98235.06;5052289;28;20500;-85
2022/09/19 00:42:26;;;;;;;1.73;1.00;;;7.90;99.90;;;8.78;100.00;98242.59;5050084;28;20963;-87
2022/09/19 00:45:01;;;;;;;1.00;0.90;;;7.90;99.90;;;8.80;100.00;98237.22;5050804;28;21068;-86
2022/09/19 00:47:39;;;;;;;2.27;1.00;;;7.90;99.90;;;8.77;100.00;98243.59;5047348;28;20560;-86
2022/09/19 00:50:18;;;;;;;1.00;0.90;;;7.90;99.90;;;8.71;100.00;98249.47;5047050;28;20453;-86
2022/09/19 00:52:52;;;;;;;2.40;1.10;;;7.90;99.90;;;8.64;100.00;98251.16;5051205;28;20578;-87
2022/09/19 00:55:23;;;;;;;2.90;1.20;;;7.70;99.90;;;8.68;100.00;98251.63;5051146;28;20471;-86
2022/09/19 00:58:08;;;;;;;5.17;0.97;;;7.70;99.90;;;8.62;100.00;98253.09;5049898;28;20496;-87
2022/09/19 01:00:38;;;;;;;1.97;0.90;;;7.80;99.90;;;8.68;100.00;98249.00;5048990;28;20457;-86
2022/09/19 01:03:09;;;;;;;0.90;0.80;;;7.70;99.90;;;8.70;100.00;98257.47;5051121;28;20464;-86
2022/09/19 01:05:55;;;;;;;1.73;1.00;;;7.70;99.90;;;8.65;100.00;98249.31;5050823;28;20455;-85
2022/09/19 01:08:55;;;;;;;1.53;1.10;;;7.60;99.90;;;8.65;100.00;98244.94;5052459;28;20547;-86
2022/09/19 01:11:57;;;;;;;0.90;0.80;;;7.70;99.90;;;8.66;100.00;98256.19;5049438;28;20457;-86
2022/09/19 01:14:53;;;;;;;1.50;0.87;;;7.70;99.90;;;8.59;100.00;98256.84;5044127;28;20572;-86
2022/09/19 01:17:32;;;;;;;11.40;0.90;;;7.60;99.90;;;8.62;100.00;98260.09;5053025;28;20616;-87
2022/09/19 01:20:52;;;;;;;2.10;0.90;;;7.60;99.90;;;8.54;100.00;98256.53;5050881;28;20450;-86
2022/09/19 01:23:57;;;;;;;0.80;0.80;;;7.60;99.90;;;8.52;100.00;98261.13;5050989;28;20484;-86
2022/09/19 01:26:51;;;;;;;2.00;0.97;;;7.50;99.90;;;8.54;100.00;98258.31;5051962;28;20464;-86
2022/09/19 01:29:27;;;;;;;2.10;0.90;;;7.50;99.90;;;8.50;100.00;98263.06;5051066;28;20447;-85
2022/09/19 01:32:01;;;;;;;2.33;0.87;;;7.50;99.90;;;8.46;100.00;98264.41;5048858;28;20540;-86
2022/09/19 01:34:37;;;;;;;4.50;1.00;;;7.50;99.90;;;8.50;100.00;98272.69;5048031;28;20588;-87
2022/09/19 01:37:12;;;;;;;4.90;0.97;;;7.50;99.90;;;8.49;100.00;98271.88;5049854;28;20670;-85
2022/09/19 01:39:47;;;;;;;1.40;1.00;;;7.50;99.90;;;8.44;100.00;98273.34;5052235;28;20492;-86
2022/09/19 01:42:19;;;;;;;4.30;1.07;;;7.40;99.90;;;8.43;100.00;98276.97;5047159;28;20489;-86
2022/09/19 01:44:52;;;;;;;2.47;1.30;;;7.50;99.90;;;8.44;100.00;98276.78;5048721;28;20465;-86
2022/09/19 01:47:29;;;;;;;5.10;1.20;;;7.50;99.90;;;8.39;100.00;98279.09;5049008;28;21317;-87
2022/09/19 01:50:08;;;;;;;2.70;0.80;;;7.50;99.90;;;8.44;100.00;98284.59;5049001;28;20551;-87
2022/09/19 01:53:07;;;;;;;3.97;1.30;;;7.50;99.90;;;8.45;100.00;98286.22;5046789;28;20466;-86
2022/09/19 01:55:48;;;;;;;9.13;1.00;;;7.50;99.90;;;8.46;100.00;98284.44;5049267;28;20464;-86
2022/09/19 01:58:26;;;;;;;0.90;0.80;;;7.50;99.90;;;8.44;100.00;98278.56;5048015;28;20507;-86
2022/09/19 02:01:08;;;;;;;3.00;1.20;;;7.50;99.90;;;8.44;100.00;98284.59;5049612;28;20491;-86
2022/09/19 02:03:50;;;;;;;12.67;1.20;;;7.50;99.90;;;8.45;100.00;98283.63;5049798;28;20456;-86
2022/09/19 02:06:35;;;;;;;1.53;0.80;;;7.50;99.90;;;8.38;100.00;98293.09;5049125;28;20498;-86
2022/09/19 02:09:12;;;;;;;4.60;1.27;;;7.50;99.90;;;8.28;100.00;98295.06;5050298;28;20441;-85
2022/09/19 02:11:44;;;;;;;2.00;1.20;;;7.40;99.90;;;8.29;100.00;98294.09;5048987;28;20464;-86
2022/09/19 02:14:18;;;;;;;3.23;1.00;;;7.40;99.90;;;8.27;100.00;98293.41;5050707;28;20563;-86
2022/09/19 02:17:00;;;;;;;2.97;1.13;;;7.30;99.90;;;8.26;100.00;98294.38;5049394;28;20456;-85
2022/09/19 02:19:34;;;;;;;4.50;1.20;;;7.40;99.90;;;8.30;100.00;98293.09;5051630;28;20499;-86
2022/09/19 02:22:11;;;;;;;3.13;1.03;;;7.40;99.90;;;8.34;100.00;98294.41;5051605;28;20495;-87
2022/09/19 02:24:45;;;;;;;5.87;1.50;;;7.40;99.90;;;8.35;100.00;98292.59;5049221;28;20818;-85
2022/09/19 02:27:24;;;;;;;2.47;1.10;;;7.50;99.90;;;8.28;100.00;98300.28;5050007;28;20441;-86
2022/09/19 02:30:00;;;;;;;6.17;1.23;;;7.40;99.90;;;8.25;100.00;98295.38;5048323;28;20480;-86
2022/09/19 02:32:31;;;;;;;2.07;1.10;;;7.40;99.90;;;8.22;100.00;98297.50;5048299;28;20513;-85
2022/09/19 02:35:00;;;;;;;2.40;1.07;;;7.40;99.90;;;8.25;100.00;98304.97;5045858;28;20498;-85
2022/09/19 02:37:35;;;;;;;3.07;1.20;;;7.30;99.90;;;8.26;100.00;98296.19;5046177;28;20453;-86
2022/09/19 02:40:14;;;;;;;4.90;1.17;;;7.30;99.90;;;8.27;100.00;98303.81;5048023;28;20489;-85
2022/09/19 02:42:55;;;;;;;2.33;1.00;;;7.30;99.90;;;8.30;100.00;98307.91;5043556;28;20940;-85
2022/09/19 02:45:29;;;;;;;2.60;1.20;;;7.50;99.90;;;8.28;100.00;98300.28;5049389;28;20457;-85
2022/09/19 02:48:06;;;;;;;2.50;1.10;;;7.40;99.90;;;8.29;100.00;98301.09;5046535;28;20479;-87
2022/09/19 02:50:43;;;;;;;1.20;1.10;;;7.40;99.90;;;8.24;100.00;98300.72;5046383;28;20472;-85
2022/09/19 02:53:18;;;;;;;2.23;1.00;;;7.50;99.90;;;8.27;100.00;98308.22;5043482;28;21082;-84
2022/09/19 02:55:55;;;;;;;7.23;1.50;;;7.50;99.90;;;8.25;100.00;98305.78;5043355;28;20551;-85
2022/09/19 02:58:30;;;;;;;5.57;1.67;;;7.40;99.90;;;8.27;100.00;98303.81;5045437;28;20502;-84
2022/09/19 03:01:05;;;;;;;2.57;1.40;;;7.40;99.90;;;8.29;100.00;98306.31;5044423;28;20963;-84
2022/09/19 03:06:38;;;;;;;3.17;1.27;;;7.40;99.90;;;8.26;100.00;98312.59;5044479;28;20952;-84
2022/09/19 03:09:12;;;;;;;3.40;1.37;;;7.40;99.90;;;8.31;100.00;98319.97;5057633;28;20492;-84
2022/09/19 03:11:50;;;;;;;4.50;1.57;;;7.40;99.90;;;8.31;100.00;98314.75;5045329;28;20877;-84
2022/09/19 03:14:19;;;;;;;4.13;1.30;;;7.50;99.90;;;8.30;100.00;98313.94;5044950;28;20516;-82
2022/09/19 03:16:56;;;;;;;4.33;1.47;;;7.50;99.90;;;8.32;100.00;98317.22;5051197;28;20548;-84
2022/09/19 03:19:26;;;;;;;6.90;1.50;;;7.50;99.90;;;8.35;100.00;98313.44;5046466;28;20564;-83
2022/09/19 03:21:56;;;;;;;2.70;1.50;;;7.50;99.90;;;8.33;100.00;98318.81;5050690;28;20461;-84
2022/09/19 03:24:26;;;;;;;1.70;1.10;;;7.50;99.90;;;8.33;100.00;98321.41;5048264;28;20460;-84
2022/09/19 03:26:54;;;;;;;3.77;1.10;;;7.60;99.90;;;8.35;100.00;98322.09;5048186;28;20468;-84
2022/09/19 03:29:23;;;;;;;2.63;1.50;;;7.50;99.90;;;8.37;100.00;98327.09;5048367;28;20501;-85
2022/09/19 03:31:53;;;;;;;2.03;1.23;;;7.60;99.90;;;8.38;100.00;98332.16;5049046;28;20563;-84
2022/09/19 03:34:22;;;;;;;3.00;1.40;;;7.60;99.90;;;8.39;100.00;98326.00;5049316;28;20493;-84
2022/09/19 03:36:52;;;;;;;1.63;1.00;;;7.60;99.90;;;8.40;100.00;98330.19;5047890;28;20552;-84
2022/09/19 03:39:21;;;;;;;2.60;1.27;;;7.60;99.90;;;8.40;100.00;98325.00;5047568;28;20565;-84
2022/09/19 03:41:51;;;;;;;4.87;1.33;;;7.60;99.90;;;8.39;100.00;98326.00;5044765;28;20470;-85
2022/09/19 03:44:21;;;;;;;5.03;1.57;;;7.60;99.90;;;8.39;100.00;98327.78;5048314;28;20560;-84
2022/09/19 03:46:50;;;;;;;5.43;1.50;;;7.70;99.90;;;8.40;100.00;98339.84;5046331;28;20975;-86
2022/09/19 03:49:20;;;;;;;5.53;1.43;;;7.70;99.90;;;8.39;100.00;98328.59;5046595;28;20504;-83
2022/09/19 03:51:49;;;;;;;3.77;1.57;;;7.70;99.90;;;8.44;100.00;98331.50;5047908;28;21108;-84
2022/09/19 03:54:19;;;;;;;2.43;1.40;;;7.70;99.90;;;8.45;100.00;98330.53;5047668;28;20580;-84
2022/09/19 03:56:48;;;;;;;8.53;1.37;;;7.70;99.90;;;8.47;100.00;98336.38;5044295;28;20519;-84
2022/09/19 03:59:18;;;;;;;6.17;1.83;;;7.70;99.90;;;8.50;100.00;98338.63;5046508;28;20584;-85
2022/09/19 04:01:47;;;;;;;3.60;1.57;;;7.70;99.90;;;8.50;100.00;98346.47;5047924;28;20544;-85
2022/09/19 04:04:18;;;;;;;5.87;1.40;;;7.80;99.90;;;8.56;100.00;98348.41;5048292;28;20481;-84
2022/09/19 04:06:46;;;;;;;8.57;1.60;;;7.80;99.90;;;8.59;100.00;98350.69;5046859;28;20826;-84
2022/09/19 04:09:15;;;;;;;6.17;1.50;;;7.80;99.90;;;8.59;100.00;98353.31;5048653;28;20483;-84
2022/09/19 04:11:45;;;;;;;12.77;1.67;;;7.80;99.90;;;8.62;100.00;98359.16;5048776;28;20579;-84
2022/09/19 04:14:15;;;;;;;2.93;1.53;;;7.90;99.90;;;8.64;100.00;98357.19;5047607;28;21234;-85
2022/09/19 04:16:45;;;;;;;4.10;1.37;;;7.80;99.90;;;8.67;100.00;98362.09;5047536;28;20859;-84
2022/09/19 04:19:14;;;;;;;5.70;1.67;;;7.80;99.90;;;8.70;100.00;98369.56;5046421;28;20465;-84
2022/09/19 04:21:44;;;;;;;8.37;1.63;;;7.90;99.90;;;8.70;100.00;98361.75;5048418;28;20564;-84
2022/09/19 04:24:14;;;;;;;4.00;1.30;;;7.90;99.90;;;8.71;100.00;98368.59;5047476;28;20461;-85
2022/09/19 04:26:46;;;;;;;3.00;1.40;;;8.00;99.90;;;8.73;100.00;98364.81;5047031;28;20485;-84
2022/09/19 04:29:19;;;;;;;9.90;2.00;;;8.00;99.90;;;8.75;100.00;98372.47;5048458;28;20461;-84
2022/09/19 04:31:49;;;;;;;5.27;1.50;;;8.00;99.90;;;8.77;100.00;98373.94;5050208;28;20507;-85
2022/09/19 04:34:18;;;;;;;3.73;1.63;;;8.00;99.90;;;8.79;100.00;98376.38;5050137;28;20460;-86
2022/09/19 04:36:51;;;;;;;2.13;1.33;;;8.00;99.90;;;8.82;100.00;98378.63;5049557;28;20485;-84
2022/09/19 04:39:20;;;;;;;6.77;1.70;;;8.00;99.90;;;8.85;100.00;98381.72;5049646;28;20533;-85
2022/09/19 04:41:52;;;;;;;3.80;1.50;;;8.00;99.90;;;8.86;100.00;98385.16;5049844;28;20459;-85
2022/09/19 04:44:25;;;;;;;2.27;1.50;;;8.10;99.90;;;8.89;100.00;98385.63;5046985;28;20835;-85
2022/09/19 04:46:55;;;;;;;3.53;1.73;;;8.10;99.90;;;8.89;100.00;98388.25;5050789;28;20461;-85
2022/09/19 04:49:26;;;;;;;4.77;1.70;;;8.10;99.90;;;8.92;100.00;98387.91;5048304;28;20445;-85
2022/09/19 04:51:56;;;;;;;6.50;2.10;;;8.10;99.90;;;8.96;100.00;98390.97;5048398;28;20465;-84
2022/09/19 04:54:25;;;;;;;4.23;1.50;;;8.20;99.90;;;8.98;100.00;98391.66;5048325;28;20966;-84
2022/09/19 04:56:56;;;;;;;2.80;1.60;;;8.30;99.90;;;9.02;100.00;98392.94;5048229;28;20488;-85
2022/09/19 04:59:24;;;;;;;3.63;2.03;;;8.30;99.90;;;9.04;100.00;98397.00;5049536;28;20560;-85
2022/09/19 05:01:53;;;;;;;6.27;1.97;;;8.30;99.90;;;9.07;100.00;98401.06;5048191;28;20465;-85
2022/09/19 05:04:23;;;;;;;3.00;1.67;;;8.40;99.90;;;9.10;100.00;98400.72;5048410;28;20445;-86
2022/09/19 05:06:52;;;;;;;5.77;1.83;;;8.50;99.90;;;9.13;100.00;98405.59;5050335;28;20476;-85
2022/09/19 05:09:22;;;;;;;3.87;1.70;;;8.40;99.90;;;9.15;100.00;98408.88;5049063;28;20452;-85
2022/09/19 05:11:55;;;;;;;1.77;1.63;;;8.40;99.90;;;9.18;100.00;98407.72;5047536;28;20466;-85
2022/09/19 05:14:27;;;;;;;9.33;2.10;;;8.50;99.90;;;9.21;100.00;98408.19;5048132;28;20477;-85
2022/09/19 05:16:56;;;;;;;1.90;1.73;;;8.40;99.90;;;9.23;100.00;98406.22;5048015;28;21034;-85
2022/09/19 05:19:25;;;;;;;6.97;1.87;;;8.50;99.90;;;9.28;100.00;98411.75;5048187;28;20471;-85
2022/09/19 05:21:54;;;;;;;8.97;1.90;;;8.50;99.90;;;9.29;100.00;98415.16;5047500;28;20536;-84
2022/09/19 05:24:22;;;;;;;5.93;1.97;;;8.50;99.90;;;9.33;100.00;98416.47;5047488;28;20461;-84
2022/09/19 05:26:52;;;;;;;9.80;2.00;;;8.60;99.90;;;9.35;100.00;98422.31;5048544;28;20473;-85
2022/09/19 05:29:20;;;;;;;6.27;1.73;;;8.60;99.90;;;9.37;100.00;98423.75;5049219;28;20524;-85
2022/09/19 05:31:50;;;;;;;11.83;1.90;;;8.60;99.90;;;9.41;100.00;98427.66;5047595;28;20457;-85
2022/09/19 05:34:19;;;;;;;5.93;2.17;;;8.60;99.90;;;9.43;100.00;98417.88;5048440;28;20518;-85
2022/09/19 05:36:47;;;;;;;7.90;1.87;;;8.60;99.90;;;9.45;100.00;98421.13;5047534;28;20507;-84
2022/09/19 05:39:16;;;;;;;12.67;2.87;;;8.70;99.90;;;9.47;100.00;98427.00;5046425;28;20507;-85
2022/09/19 05:41:45;;;;;;;2.23;1.63;;;8.70;99.90;;;9.48;100.00;98423.38;5047734;28;20488;-85
2022/09/19 05:44:16;;;;;;;10.07;2.07;;;8.80;99.90;;;9.51;100.00;98422.25;5048409;28;20457;-85
2022/09/19 05:46:44;;;;;;;5.80;1.80;;;8.80;99.90;;;9.52;100.00;98431.69;5046225;28;20449;-85
2022/09/19 05:49:14;;;;;;;4.97;2.10;;;8.80;99.90;;;9.56;100.00;98438.19;5046006;28;20456;-85
2022/09/19 05:51:43;;;;;;;8.27;2.50;;;8.80;99.90;;;9.57;100.00;98432.81;5046144;28;21004;-85
2022/09/19 05:54:12;;;;;;;5.93;2.20;;;8.90;99.90;;;9.60;100.00;98437.69;5048360;28;20478;-85
2022/09/19 05:56:41;;;;;;;9.43;1.93;;;9.00;99.90;;;9.66;100.00;98436.19;5042418;28;20500;-85
2022/09/19 05:59:10;;;;;;;7.87;3.20;;;9.10;99.90;;;9.67;100.00;98440.44;5046210;28;20473;-85
2022/09/19 06:01:38;;;;;;;8.93;1.97;;;9.00;99.90;;;9.71;100.00;98440.91;5042860;28;20881;-85
2022/09/19 06:04:08;;;;;;;5.43;2.37;;;9.10;99.90;;;9.74;100.00;98436.16;5045728;28;20569;-85
2022/09/19 06:06:38;;;;;;;16.63;2.47;;;9.10;99.90;;;9.76;100.00;98444.63;5046824;28;20547;-85
2022/09/19 06:09:07;;;;;;;46.37;20.00;;;9.10;99.90;;;9.82;100.00;98437.91;5047136;28;20496;-85
2022/09/19 06:11:36;;;;;;;6.90;2.03;;;9.20;99.90;;;9.84;100.00;98439.34;5051774;28;20475;-88
2022/09/19 06:14:18;;;;;;;9.77;2.70;;;9.30;99.90;;;9.86;100.00;98444.41;5055213;28;20507;-88
2022/09/19 06:16:47;;;;;;;4.73;1.97;;;9.30;99.90;;;9.89;100.00;98450.09;5057064;28;20623;-88
2022/09/19 06:19:16;;;;;;;7.70;2.70;;;9.30;99.90;;;9.93;100.00;98445.34;5053754;28;20445;-89
2022/09/19 06:21:47;;;;;;;4.83;1.67;;;9.40;99.90;;;9.95;100.00;98448.59;5058077;28;20477;-90
2022/09/19 06:24:16;;;;;;;9.37;2.10;;;9.30;99.90;;;10.01;100.00;98453.13;5055671;28;20445;-88
2022/09/19 06:26:44;;;;;;;8.57;1.90;;;9.40;99.90;;;10.05;100.00;98460.47;5055225;28;20505;-89
2022/09/19 06:29:13;;;;;;;7.20;2.00;;;9.40;99.90;;;10.09;100.00;98463.53;5054498;28;20473;-89
2022/09/19 06:31:41;;;;;;;4.40;2.07;;;9.50;99.90;;;10.13;100.00;98472.66;5055805;28;20508;-87
2022/09/19 06:34:12;;;;;;;16.97;2.23;;;9.50;99.90;;;10.20;100.00;98473.63;5049909;28;20465;-88
2022/09/19 06:36:43;;;;;;;16.77;7.20;;;9.50;99.90;;;10.22;100.00;98466.41;5043742;28;20491;-78
2022/09/19 06:39:13;;;;;;;8.93;2.60;;;9.50;99.90;;;10.27;100.00;98464.09;5044996;28;20531;-87
2022/09/19 06:41:42;;;;;;;3.57;2.33;;;9.60;99.90;;;10.30;100.00;98468.16;5049676;28;20464;-87
2022/09/19 06:44:11;;;;;;;6.07;2.33;;;9.60;99.90;;;10.34;100.00;98470.25;5048482;28;21139;-87
2022/09/19 06:46:40;;;;;;;6.23;1.87;;;9.70;99.90;;;10.38;100.00;98475.91;5049331;28;20493;-87
2022/09/19 06:49:09;;;;;;;6.33;1.67;;;9.70;99.90;;;10.41;100.00;98476.38;5052145;28;20871;-87
2022/09/19 06:51:38;;;;;;;15.63;2.70;;;9.80;99.90;;;10.46;100.00;98484.53;5053785;28;20513;-88
2022/09/19 06:54:07;;;;;;;13.53;6.47;;;9.90;99.90;;;10.49;100.00;98473.72;5050057;28;20980;-77
2022/09/19 06:56:37;;;;;;;9.53;2.00;;;9.80;99.90;;;10.55;100.00;98480.84;5052694;28;20520;-88
2022/09/19 06:59:06;;;;;;;5.60;2.30;;;9.90;99.90;;;10.59;100.00;98479.50;5052446;28;20457;-88
2022/09/19 07:01:37;;;;;;;4.47;1.77;;;10.00;99.90;;;10.59;100.00;98476.06;5056335;28;20480;-87
2022/09/19 07:04:06;;;;;;;5.40;1.80;;;10.00;99.90;;;10.58;100.00;98477.09;5053852;28;20556;-87
2022/09/19 07:06:35;;;;;;;7.27;2.00;;;10.10;99.90;;;10.60;100.00;98475.91;5054170;28;20514;-88
2022/09/19 07:09:06;;;;;;;3.40;1.80;;;10.10;99.90;;;10.64;100.00;98486.03;5054505;28;20552;-87
2022/09/19 07:11:37;;;;;;;7.00;1.93;;;10.10;99.90;;;10.66;100.00;98486.66;5055429;28;20572;-87
2022/09/19 07:14:06;;;;;;;16.27;2.57;;;10.20;99.90;;;10.72;100.00;98485.97;5054941;28;20876;-88
2022/09/19 07:16:34;;;;;;;11.70;2.40;;;10.10;99.90;;;10.76;100.00;98487.25;5051422;28;20517;-88
2022/09/19 07:19:03;;;;;;;8.07;2.23;;;10.30;99.90;;;10.77;100.00;98481.00;5056015;28;20453;-87
2022/09/19 07:21:33;;;;;;;8.37;2.27;;;10.20;99.90;;;10.80;100.00;98478.84;5047169;28;20510;-85
2022/09/19 07:24:04;;;;;;;19.60;6.43;;;10.30;99.90;;;10.86;100.00;98487.81;5049323;28;20488;-87
2022/09/19 07:26:41;;;;;;;4.83;1.73;;;10.30;99.90;;;10.90;100.00;98495.09;5045614;28;20473;-86
2022/09/19 07:29:14;;;;;;;9.97;2.00;;;10.30;99.90;;;10.95;100.00;98499.81;5048409;28;20468;-85
2022/09/19 07:31:42;;;;;;;6.00;1.80;;;10.30;99.90;;;11.01;100.00;98489.44;5047732;28;20534;-86
2022/09/19 07:34:11;;;;;;;9.50;1.60;;;10.40;99.90;;;11.05;100.00;98500.34;5046964;28;20469;-85
2022/09/19 07:36:40;;;;;;;8.03;2.13;;;10.40;99.90;;;11.04;100.00;98488.25;5046934;28;21027;-84
2022/09/19 07:39:09;;;;;;;3.90;1.80;;;10.50;99.90;;;11.07;100.00;98493.16;5047197;28;20461;-86
2022/09/19 07:41:38;;;;;;;12.53;2.20;;;10.40;99.90;;;11.08;100.00;98498.19;5046513;28;20457;-86
2022/09/19 07:44:08;;;;;;;11.70;1.80;;;10.50;99.90;;;11.10;100.00;98500.66;5048838;28;20500;-86
2022/09/19 07:46:36;;;;;;;10.13;1.87;;;10.60;99.90;;;11.12;100.00;98498.66;5050003;28;20551;-86
2022/09/19 07:49:06;;;;;;;9.60;3.30;;;10.50;99.90;;;11.13;100.00;98500.28;5049281;28;20461;-87
2022/09/19 07:51:44;;;;;;;6.43;1.70;;;10.60;99.90;;;11.13;100.00;98495.06;5048334;28;20496;-86
2022/09/19 07:54:17;;;;;;;5.70;1.60;;;10.70;99.90;;;11.14;100.00;98494.06;5058026;28;20561;-86
2022/09/19 07:56:49;;;;;;;6.90;1.67;;;10.70;99.90;;;11.17;100.00;98493.72;5048505;28;20490;-85
2022/09/19 07:59:20;;;;;;;6.77;1.40;;;10.70;99.90;;;11.15;100.00;98498.28;5046383;28;20905;-84
2022/09/19 08:01:50;;;;;;;2.90;1.53;;;10.70;99.90;;;11.18;100.00;98511.00;5044994;28;20505;-85
2022/09/19 08:04:27;;;;;;;7.80;2.20;;;10.70;99.90;;;11.18;100.00;98508.41;5046019;28;20453;-84
2022/09/19 08:06:56;;;;;;;7.73;1.83;;;10.70;99.90;;;11.25;100.00;98511.09;5043208;28;20492;-85
2022/09/19 08:09:27;;;;;;;2.43;1.57;;;10.70;99.90;;;11.26;100.00;98521.41;5060762;28;21537;-86
2022/09/19 08:11:58;;;;;;;8.43;1.67;;;10.70;99.90;;;11.33;100.00;98526.75;5046254;28;20461;-86
2022/09/19 08:14:33;;;;;;;10.07;1.63;;;10.80;99.90;;;11.37;100.00;98535.88;5047690;28;20464;-87
2022/09/19 08:17:02;;;;;;;7.53;2.00;;;10.80;99.90;;;11.41;100.00;98530.09;5050138;28;20538;-86
2022/09/19 08:19:31;;;;;;;8.10;1.73;;;10.90;99.90;;;11.45;100.00;98533.97;5047340;28;20537;-87
2022/09/19 08:22:01;;;;;;;14.37;3.10;;;10.90;99.90;;;11.49;100.00;98543.09;5047898;28;20947;-84
2022/09/19 08:24:31;;;;;;;5.63;1.80;;;10.90;99.90;;;11.51;100.00;98530.63;5042867;28;20468;-86
2022/09/19 08:27:00;;;;;;;3.90;1.90;;;11.00;99.90;;;11.52;100.00;98544.56;5046075;28;20494;-85
2022/09/19 08:29:32;;;;;;;7.67;1.70;;;11.00;99.90;;;11.54;100.00;98546.00;5046882;28;20535;-87
2022/09/19 08:32:06;;;;;;;7.33;1.70;;;11.00;99.90;;;11.58;100.00;98547.25;5046315;28;20471;-83
2022/09/19 08:34:35;;;;;;;8.60;1.57;;;11.00;99.90;;;11.62;100.00;98542.47;5045062;28;20841;-84
2022/09/19 08:37:04;;;;;;;5.90;1.60;;;11.10;99.90;;;11.68;100.00;98544.34;5046003;28;21124;-86
2022/09/19 08:39:33;;;;;;;1.77;1.57;;;11.10;99.90;;;11.74;100.00;98545.47;5044767;28;20911;-83
2022/09/19 08:42:22;;;;;;;5.30;1.67;;;11.20;99.90;;;11.78;100.00;98554.59;5048469;28;20535;-83
2022/09/19 08:45:03;;;;;;;5.53;3.10;;;11.20;99.90;;;11.85;100.00;98548.44;5046194;28;20838;-83
2022/09/19 08:47:37;;;;;;;8.63;1.50;;;11.30;99.90;;;11.86;100.00;98554.50;5046550;28;20497;-83
2022/09/19 08:50:15;;;;;;;6.60;1.73;;;11.40;99.90;;;11.89;100.00;98551.50;5045042;28;20518;-84
2022/09/19 08:52:48;;;;;;;6.53;1.70;;;11.40;99.90;;;11.92;100.00;98554.56;5045097;28;20912;-83
2022/09/19 08:55:23;;;;;;;5.07;1.70;;;11.40;99.90;;;11.99;100.00;98563.34;5046141;28;20899;-84
2022/09/19 08:57:59;;;;;;;5.43;2.90;;;11.50;99.90;;;12.05;100.00;98561.78;5053832;28;20541;-84
2022/09/19 09:00:39;;;;;;;6.17;1.90;;;11.50;99.90;;;12.07;100.00;98565.03;5044350;28;20962;-84
2022/09/19 09:03:16;;;;;;;7.20;1.57;;;11.50;99.90;;;12.12;100.00;98565.28;5045106;28;20854;-85
2022/09/19 09:06:16;;;;;;;7.93;1.40;;;11.60;99.90;;;12.19;100.00;98553.06;5045009;28;20484;-83
2022/09/19 09:08:57;;;;;;;4.10;1.30;;;11.70;99.90;;;12.26;100.00;98566.25;5045726;28;20465;-84
2022/09/19 09:11:36;;;;;;;4.30;1.40;;;11.70;99.90;;;12.27;100.00;98563.47;5045418;28;20560;-83
2022/09/19 09:14:26;;;;;;;8.77;1.50;;;11.70;99.90;;;12.33;100.00;98561.91;5046635;28;20492;-83
2022/09/19 09:17:17;;;;;;;3.90;2.10;;;11.70;99.90;;;12.36;100.00;98564.16;5042928;28;20465;-85
2022/09/19 09:20:08;;;;;;;12.57;3.10;;;11.80;99.90;;;12.39;100.00;98558.56;5045459;28;20465;-85
2022/09/19 09:22:44;;;;;;;8.53;1.83;;;11.80;99.90;;;12.40;100.00;98568.84;5043701;28;20568;-84
2022/09/19 09:25:24;;;;;;;6.10;1.77;;;11.80;99.90;;;12.44;100.00;98570.09;5041177;28;20979;-84
2022/09/19 09:28:05;;;;;;;4.90;2.00;;;11.90;99.90;;;12.47;100.00;98561.84;5045886;28;20465;-85
2022/09/19 09:30:47;;;;;;;8.87;1.53;;;11.90;99.90;;;12.54;100.00;98561.94;5044357;28;20553;-85
2022/09/19 09:33:25;;;;;;;6.03;1.57;;;12.00;99.90;;;12.55;100.00;98558.31;5044355;28;20568;-85
2022/09/19 09:36:06;;;;;;;8.63;1.90;;;12.00;99.90;;;12.59;100.00;98557.75;5044169;28;20485;-85
2022/09/19 09:38:48;;;;;;;12.23;2.40;;;12.00;99.90;;;12.69;100.00;98564.50;5042243;28;20587;-84
2022/09/19 09:44:47;;;;;;;4.13;1.70;;;12.20;99.90;;;12.82;100.00;98551.50;5043001;28;20511;-84
2022/09/19 09:47:43;;;;;;;14.27;1.90;;;12.20;99.90;;;12.89;100.00;98552.38;5042725;28;21133;-84
2022/09/19 09:50:42;;;;;;;9.33;2.60;;;12.30;99.90;;;12.95;100.00;98548.97;5041841;28;20558;-84
2022/09/19 09:53:30;;;;;;;8.23;1.50;;;12.30;99.90;;;12.97;100.00;98554.88;5044233;28;20535;-84
2022/09/19 09:56:14;;;;;;;5.47;1.53;;;12.40;99.90;;;13.00;100.00;98563.19;5043982;28;20552;-85
2022/09/19 10:03:33;;;;;;;6.43;1.53;;;12.50;99.90;;;13.00;100.00;98557.09;5041897;28;20489;-85
2022/09/19 10:05:13;;;;;;;4.37;1.50;;;12.40;99.90;;;12.98;100.00;98553.88;5041177;28;20496;-84
2022/09/19 10:07:59;;;;;;;7.10;1.67;;;12.50;99.90;;;12.93;100.00;98554.44;5056475;28;20982;-84
2022/09/19 10:10:32;;;;;;;3.23;1.60;;;12.30;99.90;;;12.92;100.00;98557.22;5043477;28;20465;-83
2022/09/19 10:13:13;;;;;;;4.90;1.40;;;12.30;99.90;;;12.94;100.00;98558.69;5042431;28;20487;-82
2022/09/19 10:15:42;;;;;;;5.90;1.80;;;12.40;99.90;;;13.00;100.00;98560.56;5042750;28;20474;-81
2022/09/19 10:18:18;;;;;;;14.00;1.90;;;12.40;99.90;;;13.02;100.00;98549.84;5043268;28;21006;-82
2022/09/19 10:20:51;;;;;;;12.67;1.93;;;12.40;99.90;;;13.07;100.00;98553.53;5043312;28;20460;-82
2022/09/19 10:23:25;;;;;;;8.40;1.90;;;12.60;99.90;;;13.12;100.00;98547.72;5043501;28;20802;-82
2022/09/19 10:26:02;;;;;;;3.60;1.20;;;12.70;99.90;;;13.20;100.00;98552.84;5044089;28;20465;-82
2022/09/19 10:28:37;;;;;;;6.30;1.70;;;12.80;99.90;;;13.27;100.00;98552.88;5047094;28;20551;-82
2022/09/19 10:31:23;;;;;;;2.40;1.50;;;12.80;99.90;;;13.32;100.00;98553.16;5042711;28;20500;-82
2022/09/19 10:33:52;;;;;;;5.80;1.93;;;12.80;99.90;;;13.34;100.00;98553.75;5046340;28;20476;-82
2022/09/19 10:36:25;;;;;;;3.13;1.23;;;12.80;99.90;;;13.37;100.00;98554.19;5041937;28;20465;-81
2022/09/19 10:38:59;;;;;;;29.67;11.73;;;12.90;99.90;;;13.38;100.00;98562.88;5049016;28;20496;-77
2022/09/19 10:41:31;;;;;;;7.20;1.53;;;12.90;99.90;;;13.40;100.00;98566.94;5041710;28;20468;-81
2022/09/19 10:44:06;;;;;;;9.80;1.70;;;12.90;99.90;;;13.47;100.00;98564.34;5042065;28;20960;-83
2022/09/19 10:46:45;;;;;;;6.60;1.90;;;12.80;99.90;;;13.50;100.00;98553.47;5045350;28;20479;-82
2022/09/19 10:49:21;;;;;;;3.73;1.50;;;13.00;99.90;;;13.57;100.00;98557.72;5045974;28;20489;-84
2022/09/19 10:51:53;;;;;;;2.00;1.10;;;13.00;99.90;;;13.59;100.00;98555.75;5044579;28;20472;-85
2022/09/19 10:54:36;;;;;;;11.10;1.63;;;13.10;99.90;;;13.63;100.00;98566.69;5044058;28;20966;-85
2022/09/19 10:57:06;;;;;;;5.70;1.50;;;13.10;99.90;;;13.68;100.00;98563.44;5048676;28;20473;-84
2022/09/19 10:59:40;;;;;;;6.63;1.63;;;13.20;99.90;;;13.73;100.00;98559.25;5045800;28;20964;-85